Date,TemperatureHighF,TemperatureAvgF,TemperatureLowF,DewpointHighF,DewpointAvgF,DewpointLowF,HumidityHigh,HumidityAvg,HumidityLow,PressureMaxIn,PressureMinIn,WindSpeedMaxMPH,WindSpeedAvgMPH,GustSpeedMaxMPH,PrecipitationSumIn
2013-3-3,66.5,33.2,66.5,36.0,-32.0,-99.9,33,16,33,29.83,29.75,3,-498,11,0.00
2013-3-4,78.1,72.0,60.4,44.0,44.0,44.0,55,38,30,29.86,29.82,0,0,11,0.00
2013-3-6,61.5,61.5,61.5,40.0,40.0,40.0,45,45,45,29.78,29.78,0,0,6,0.00
2013-3-7,64.0,42.5,63.4,45.0,-3.3,-99.9,52,34,50,29.79,29.73,1,-332,8,0.00
2013-3-8,53.1,53.1,53.1,36.0,36.0,36.0,53,53,53,29.74,29.74,0,0,6,0.00
2013-3-9,44.8,44.8,44.8,38.0,38.0,38.0,78,78,78,29.85,29.85,0,0,1,0.00
2013-3-11,66.9,60.6,52.4,26.0,23.4,18.0,26,24,21,30.06,30.04,3,1,4,0.00
2013-3-12,71.7,71.7,71.7,36.0,36.0,36.0,27,27,27,29.91,29.91,0,0,1,0.00
2013-3-13,97.2,64.4,95.9,31.0,-13.3,-99.9,10,6,9,29.94,29.89,3,-331,5,0.00
2013-3-16,91.4,45.7,91.4,32.0,-34.0,-99.9,12,6,12,29.64,29.63,10,-494,14,0.00
2013-3-17,88.4,44.2,88.4,44.0,-28.0,-99.9,21,10,21,29.69,29.66,1,-499,9,0.00
2013-3-18,69.2,69.2,69.2,45.0,45.0,45.0,42,42,42,29.71,29.71,5,5,9,0.00
2013-3-20,69.6,34.8,69.6,48.0,-26.0,-99.9,47,24,47,29.82,29.68,2,-498,15,0.00
2013-3-21,81.9,75.9,70.0,47.0,46.0,45.0,41,35,29,29.69,29.55,4,2,13,0.00
2013-3-22,82.2,76.1,64.1,48.0,31.7,22.0,56,26,11,29.66,29.55,3,2,8,0.00
2013-3-23,61.3,61.3,61.3,39.0,39.0,39.0,44,44,44,29.73,29.73,0,0,3,0.00
2013-3-24,82.2,82.2,82.2,15.0,15.0,15.0,8,8,8,29.84,29.84,0,0,2,0.00
2013-3-25,78.2,68.9,59.7,23.0,22.5,22.0,24,18,12,29.80,29.72,4,2,6,0.00
2013-3-26,89.8,83.4,62.5,44.0,30.8,26.0,52,19,10,29.71,29.65,4,2,6,0.00
2013-3-27,-200.0,0.0,200.0,-99.9,-99.9,-99.9,0,0,100,29.71,29.71,0,-999,0,0.00
2013-3-28,84.2,84.2,84.2,38.0,38.0,38.0,19,19,19,29.79,29.79,0,0,4,0.00
2013-3-29,84.7,78.1,69.5,47.0,46.5,45.0,45,34,25,29.92,29.85,2,1,6,0.00
2013-3-30,90.4,45.2,90.4,43.0,-28.5,-99.9,19,10,19,29.83,29.81,1,-499,6,0.00
2013-3-31,70.9,70.9,70.9,44.0,44.0,44.0,38,38,38,29.85,29.85,2,2,9,0.00